Airport ID:1G3
Update Time (UTC):26/02/2021 19:10
Wind Speed (Knots):5
Wind Direction (Magnetic):120
Temperature (°C):4
Dew Point (°C):-8
Humidity (%):45
Altimeter (inHg):30.29
Density Altitude (Feet):
Visibility:10+
Clouds (Hundreds of feet):***
Present Weather:
METAR:METAR 1G3 261905Z AUTO VRB05KT 10SM 04/M08 A3030 RMK A01

The data displayed is for advisory purposes only and is not to be used for flight planning or operations.